createdAt,value
2018-03-30T00:00:45.488Z,18.63
2018-03-30T00:01:44.984Z,18.51
2018-03-30T00:02:44.947Z,18.56
2018-03-30T00:03:44.933Z,18.58
2018-03-30T00:04:44.972Z,18.5
2018-03-30T00:05:44.954Z,18.56
2018-03-30T00:06:44.962Z,18.6
2018-03-30T00:07:44.960Z,18.49
2018-03-30T00:08:45.014Z,18.54
2018-03-30T00:09:45.107Z,18.57
2018-03-30T00:10:45.005Z,18.47
2018-03-30T00:11:44.959Z,18.53
2018-03-30T00:12:44.928Z,18.57
2018-03-30T00:13:44.949Z,18.5
2018-03-30T00:14:45.076Z,18.5
2018-03-30T00:15:45.036Z,18.56
2018-03-30T00:16:44.986Z,18.46
2018-03-30T00:17:44.962Z,18.49
2018-03-30T00:18:44.993Z,18.54
2018-03-30T00:19:44.939Z,18.46
2018-03-30T00:20:44.964Z,18.51
2018-03-30T00:21:45.015Z,18.51
2018-03-30T00:22:44.962Z,18.43
2018-03-30T00:23:44.969Z,18.49
2018-03-30T00:24:44.976Z,18.53
2018-03-30T00:25:44.978Z,18.43
2018-03-30T00:26:44.925Z,18.47
2018-03-30T00:27:44.990Z,18.51
2018-03-30T00:28:44.933Z,18.43
2018-03-30T00:29:44.949Z,18.47
2018-03-30T00:30:45.043Z,18.51
2018-03-30T00:31:44.955Z,18.41
2018-03-30T00:32:44.936Z,18.46
2018-03-30T00:33:44.941Z,18.47
2018-03-30T00:34:45.037Z,18.43
2018-03-30T00:35:44.967Z,18.44
2018-03-30T00:36:44.954Z,18.5
2018-03-30T00:37:44.930Z,18.37
2018-03-30T00:38:44.934Z,18.41
2018-03-30T00:39:44.963Z,18.49
2018-03-30T00:40:44.962Z,18.37
2018-03-30T00:41:44.957Z,18.41
2018-03-30T00:42:44.986Z,18.44
2018-03-30T00:43:44.954Z,18.35
2018-03-30T00:44:44.942Z,18.43
2018-03-30T00:45:45.003Z,18.46
2018-03-30T00:46:44.958Z,18.35
2018-03-30T00:47:44.942Z,18.39
2018-03-30T00:48:44.932Z,18.43
2018-03-30T00:49:44.959Z,18.36
2018-03-30T00:50:45.016Z,18.4
2018-03-30T00:51:44.947Z,18.41
2018-03-30T00:52:44.943Z,18.33
2018-03-30T00:53:44.930Z,18.36
2018-03-30T00:54:44.970Z,18.4
2018-03-30T00:55:45.204Z,18.32
2018-03-30T00:56:44.941Z,18.36
2018-03-30T00:57:44.940Z,18.37
2018-03-30T00:58:44.990Z,18.32
2018-03-30T00:59:44.940Z,18.37
2018-03-30T01:00:44.944Z,18.4
2018-03-30T01:01:44.947Z,18.32
2018-03-30T01:02:44.931Z,18.33
2018-03-30T01:03:44.913Z,18.39
2018-03-30T01:04:44.952Z,18.3
2018-03-30T01:05:44.971Z,18.35
2018-03-30T01:06:44.919Z,18.39
2018-03-30T01:07:45.010Z,18.28
2018-03-30T01:08:44.956Z,18.32
2018-03-30T01:09:44.933Z,18.36
2018-03-30T01:10:44.941Z,18.28
2018-03-30T01:11:44.912Z,18.33
2018-03-30T01:12:44.938Z,18.37
2018-03-30T01:13:44.947Z,18.29
2018-03-30T01:14:44.949Z,18.33
2018-03-30T01:15:44.912Z,18.35
2018-03-30T01:16:44.944Z,18.28
2018-03-30T01:17:44.971Z,18.32
2018-03-30T01:18:44.937Z,18.32
2018-03-30T01:19:44.927Z,18.26
2018-03-30T01:20:44.911Z,18.3
2018-03-30T01:21:44.937Z,18.33
2018-03-30T01:22:44.953Z,18.21
2018-03-30T01:23:44.960Z,18.3
2018-03-30T01:24:44.944Z,18.33
2018-03-30T01:25:44.924Z,18.25
2018-03-30T01:26:44.943Z,18.3
2018-03-30T01:27:44.981Z,18.33
2018-03-30T01:28:44.984Z,18.23
2018-03-30T01:29:44.946Z,18.29
2018-03-30T01:30:44.969Z,18.32
2018-03-30T01:31:44.932Z,18.23
2018-03-30T01:32:44.954Z,18.25
2018-03-30T01:33:44.933Z,18.32
2018-03-30T01:34:44.911Z,18.23
2018-03-30T01:35:44.933Z,18.25
2018-03-30T01:36:44.925Z,18.3
2018-03-30T01:37:44.927Z,18.19
2018-03-30T01:38:44.917Z,18.25
2018-03-30T01:39:44.925Z,18.28
2018-03-30T01:40:44.926Z,18.19
2018-03-30T01:41:44.925Z,18.23
2018-03-30T01:42:44.928Z,18.28
2018-03-30T01:43:44.968Z,18.16
2018-03-30T01:44:44.909Z,18.25
2018-03-30T01:45:44.959Z,18.28
2018-03-30T01:46:44.964Z,18.18
2018-03-30T01:47:44.917Z,18.25
2018-03-30T01:48:44.954Z,18.3
2018-03-30T01:49:44.917Z,18.15
2018-03-30T01:50:44.942Z,18.23
2018-03-30T01:51:44.910Z,18.28
2018-03-30T01:52:44.948Z,18.19
2018-03-30T01:53:44.961Z,18.25
2018-03-30T01:54:44.926Z,18.29
2018-03-30T01:55:44.945Z,18.18
2018-03-30T01:56:44.920Z,18.21
2018-03-30T01:57:44.972Z,18.28
2018-03-30T01:58:44.923Z,18.19
2018-03-30T01:59:44.983Z,18.22
2018-03-30T02:00:44.932Z,18.28
2018-03-30T02:01:44.960Z,18.18
2018-03-30T02:02:44.911Z,18.25
2018-03-30T02:03:44.966Z,18.28
2018-03-30T02:04:44.916Z,18.18
2018-03-30T02:05:44.961Z,18.23
2018-03-30T02:06:45.001Z,18.26
2018-03-30T02:07:44.985Z,18.16
2018-03-30T02:08:44.921Z,18.22
2018-03-30T02:09:44.988Z,18.23
2018-03-30T02:10:45.018Z,18.15
2018-03-30T02:11:44.926Z,18.22
2018-03-30T02:12:44.945Z,18.25
2018-03-30T02:13:44.908Z,18.13
2018-03-30T02:14:44.938Z,18.19
2018-03-30T02:15:45.039Z,18.25
2018-03-30T02:16:45.037Z,18.15
2018-03-30T02:17:44.909Z,18.22
2018-03-30T02:18:44.937Z,18.25
2018-03-30T02:19:45.178Z,18.12
2018-03-30T02:20:44.907Z,18.19
2018-03-30T02:21:44.946Z,18.21
2018-03-30T02:22:44.906Z,18.12
2018-03-30T02:23:44.946Z,18.18
2018-03-30T02:24:44.939Z,18.23
2018-03-30T02:25:44.894Z,18.11
2018-03-30T02:26:44.913Z,18.18
2018-03-30T02:27:44.921Z,18.22
2018-03-30T02:28:44.898Z,18.11
2018-03-30T02:29:44.997Z,18.18
2018-03-30T02:30:44.964Z,18.19
2018-03-30T02:31:44.920Z,18.11
2018-03-30T02:32:44.925Z,18.18
2018-03-30T02:33:44.925Z,18.22
2018-03-30T02:34:44.925Z,18.09
2018-03-30T02:35:44.941Z,18.15
2018-03-30T02:36:44.934Z,18.19
2018-03-30T02:37:44.922Z,18.08
2018-03-30T02:38:44.959Z,18.15
2018-03-30T02:39:45.000Z,18.16
2018-03-30T02:40:44.937Z,18.11
2018-03-30T02:41:44.921Z,18.15
2018-03-30T02:42:44.895Z,18.19
2018-03-30T02:43:44.905Z,18.07
2018-03-30T02:44:44.943Z,18.12
2018-03-30T02:45:44.936Z,18.18
2018-03-30T02:46:44.948Z,18.07
2018-03-30T02:47:44.917Z,18.12
2018-03-30T02:48:44.924Z,18.19
2018-03-30T02:49:44.946Z,18.07
2018-03-30T02:50:44.909Z,18.12
2018-03-30T02:51:44.926Z,18.16
2018-03-30T02:52:44.930Z,18.04
2018-03-30T02:53:44.919Z,18.13
2018-03-30T02:54:45.243Z,18.15
2018-03-30T02:55:44.935Z,18.04
2018-03-30T02:56:44.966Z,18.09
2018-03-30T02:57:44.887Z,18.16
2018-03-30T02:58:44.905Z,18.04
2018-03-30T02:59:44.999Z,18.12
2018-03-30T03:00:44.925Z,18.13
2018-03-30T03:01:44.904Z,18.04
2018-03-30T03:02:44.910Z,18.09
2018-03-30T03:03:44.899Z,18.13
2018-03-30T03:04:44.931Z,18.04
2018-03-30T03:05:44.943Z,18.09
2018-03-30T03:06:44.912Z,18.12
2018-03-30T03:07:44.917Z,18.04
2018-03-30T03:08:44.908Z,18.08
2018-03-30T03:09:44.906Z,18.12
2018-03-30T03:10:44.879Z,18.02
2018-03-30T03:11:44.898Z,18.07
2018-03-30T03:12:44.872Z,18.11
2018-03-30T03:13:44.897Z,18.02
2018-03-30T03:14:44.906Z,18.07
2018-03-30T03:15:44.884Z,18.11
2018-03-30T03:16:44.917Z,18.02
2018-03-30T03:17:44.906Z,18.07
2018-03-30T03:18:44.902Z,18.11
2018-03-30T03:19:44.897Z,17.98
2018-03-30T03:20:44.917Z,18.04
2018-03-30T03:21:44.964Z,18.08
2018-03-30T03:22:44.897Z,18
2018-03-30T03:23:44.925Z,18.05
2018-03-30T03:24:44.918Z,18.08
2018-03-30T03:25:44.897Z,17.97
2018-03-30T03:26:45.193Z,18.05
2018-03-30T03:27:44.898Z,18.08
2018-03-30T03:28:45.243Z,17.95
2018-03-30T03:29:44.915Z,18.04
2018-03-30T03:30:44.947Z,18.07
2018-03-30T03:31:44.931Z,17.97
2018-03-30T03:32:44.910Z,18.02
2018-03-30T03:33:44.892Z,18.07
2018-03-30T03:34:44.874Z,17.95
2018-03-30T03:35:44.888Z,18.04
2018-03-30T03:36:44.898Z,18.07
2018-03-30T03:37:44.910Z,17.97
2018-03-30T03:38:44.926Z,18.01
2018-03-30T03:39:44.883Z,18.08
2018-03-30T03:40:44.872Z,17.97
2018-03-30T03:41:44.917Z,18
2018-03-30T03:42:44.887Z,18.07
2018-03-30T03:43:44.874Z,17.89
2018-03-30T03:44:44.892Z,18
2018-03-30T03:45:44.882Z,18.04
2018-03-30T03:46:44.910Z,17.94
2018-03-30T03:47:44.903Z,18
2018-03-30T03:48:44.874Z,18.04
2018-03-30T03:49:44.882Z,17.93
2018-03-30T03:50:44.883Z,17.95
2018-03-30T03:51:44.895Z,18.01
2018-03-30T03:52:44.919Z,17.94
2018-03-30T03:53:44.880Z,17.97
2018-03-30T03:54:44.861Z,17.98
2018-03-30T03:55:44.874Z,17.89
2018-03-30T03:56:44.918Z,17.95
2018-03-30T03:57:44.900Z,17.98
2018-03-30T03:58:44.883Z,17.93
2018-03-30T03:59:44.873Z,17.98
2018-03-30T04:00:44.883Z,18.05
2018-03-30T04:01:44.955Z,17.93
2018-03-30T04:02:44.933Z,18
2018-03-30T04:03:44.878Z,18.05
2018-03-30T04:04:44.916Z,17.98
2018-03-30T04:05:44.886Z,18.01
2018-03-30T04:06:44.870Z,18.07
2018-03-30T04:07:44.914Z,18.01
2018-03-30T04:08:44.886Z,18.05
2018-03-30T04:09:44.895Z,18.05
2018-03-30T04:10:44.897Z,18.01
2018-03-30T04:11:44.898Z,18.04
2018-03-30T04:12:44.892Z,18.04
2018-03-30T04:13:44.887Z,18.04
2018-03-30T04:14:44.847Z,18.08
2018-03-30T04:15:44.910Z,18.11
2018-03-30T04:16:44.999Z,18.09
2018-03-30T04:17:45.065Z,18.12
2018-03-30T04:18:44.901Z,18.15
2018-03-30T04:19:44.873Z,18.13
2018-03-30T04:20:44.899Z,18.18
2018-03-30T04:21:45.039Z,18.22
2018-03-30T04:22:44.899Z,18.22
2018-03-30T04:23:44.871Z,18.23
2018-03-30T04:24:44.878Z,18.25
2018-03-30T04:25:44.894Z,18.26
2018-03-30T04:26:44.917Z,18.29
2018-03-30T04:27:44.868Z,18.3
2018-03-30T04:28:44.865Z,18.32
2018-03-30T04:29:44.862Z,18.33
2018-03-30T04:30:44.878Z,18.33
2018-03-30T04:31:45.028Z,18.35
2018-03-30T04:32:44.933Z,18.37
2018-03-30T04:33:44.842Z,18.39
2018-03-30T04:34:44.862Z,18.39
2018-03-30T04:35:44.865Z,18.39
2018-03-30T04:36:44.893Z,18.43
2018-03-30T04:37:44.898Z,18.44
2018-03-30T04:38:44.874Z,18.44
2018-03-30T04:39:44.855Z,18.47
2018-03-30T04:40:44.887Z,18.47
2018-03-30T04:41:44.884Z,18.5
2018-03-30T04:42:44.882Z,18.51
2018-03-30T04:43:44.866Z,18.53
2018-03-30T04:44:44.862Z,18.54
2018-03-30T04:45:44.862Z,18.56
2018-03-30T04:46:44.872Z,18.57
2018-03-30T04:47:44.905Z,18.57
2018-03-30T04:48:44.853Z,18.6
2018-03-30T04:49:44.849Z,18.62
2018-03-30T04:50:44.858Z,18.62
2018-03-30T04:51:44.904Z,18.64
2018-03-30T04:52:44.909Z,18.62
2018-03-30T04:53:44.877Z,18.66
2018-03-30T04:54:44.910Z,18.66
2018-03-30T04:55:44.872Z,18.66
2018-03-30T04:56:44.882Z,18.71
2018-03-30T04:57:44.910Z,18.71
2018-03-30T04:58:44.873Z,18.68
2018-03-30T04:59:44.887Z,18.74
2018-03-30T05:00:44.841Z,18.73
2018-03-30T05:01:44.890Z,18.73
2018-03-30T05:02:44.883Z,18.74
2018-03-30T05:03:44.843Z,18.75
2018-03-30T05:04:44.849Z,18.77
2018-03-30T05:05:44.854Z,18.77
2018-03-30T05:06:44.922Z,18.81
2018-03-30T05:07:44.873Z,18.81
2018-03-30T05:08:44.867Z,18.8
2018-03-30T05:09:44.906Z,18.83
2018-03-30T05:10:44.856Z,18.8
2018-03-30T05:11:44.875Z,18.87
2018-03-30T05:12:44.886Z,18.87
2018-03-30T05:13:44.851Z,18.88
2018-03-30T05:14:44.856Z,18.9
2018-03-30T05:15:44.859Z,18.91
2018-03-30T05:16:44.874Z,18.92
2018-03-30T05:17:44.847Z,18.91
2018-03-30T05:18:44.886Z,18.94
2018-03-30T05:19:44.847Z,18.95
2018-03-30T05:20:44.856Z,18.95
2018-03-30T05:21:44.918Z,18.95
2018-03-30T05:22:44.916Z,18.98
2018-03-30T05:23:44.857Z,18.99
2018-03-30T05:24:44.904Z,18.98
2018-03-30T05:25:44.845Z,19.02
2018-03-30T05:26:44.882Z,19.02
2018-03-30T05:27:44.859Z,19.03
2018-03-30T05:28:44.856Z,19.06
2018-03-30T05:29:44.845Z,19.05
2018-03-30T05:30:44.861Z,19.05
2018-03-30T05:31:44.902Z,19.09
2018-03-30T05:32:44.839Z,19.09
2018-03-30T05:33:44.999Z,19.09
2018-03-30T05:34:44.849Z,19.11
2018-03-30T05:35:44.841Z,19.11
2018-03-30T05:36:44.848Z,19.11
2018-03-30T05:37:44.846Z,19.12
2018-03-30T05:38:44.846Z,19.11
2018-03-30T05:39:45.152Z,19.12
2018-03-30T05:40:44.886Z,19.13
2018-03-30T05:41:44.838Z,19.11
2018-03-30T05:42:44.836Z,19.16
2018-03-30T05:43:44.865Z,19.16
2018-03-30T05:44:44.843Z,19.18
2018-03-30T05:45:44.840Z,19.16
2018-03-30T05:46:44.923Z,19.18
2018-03-30T05:47:44.833Z,19.16
2018-03-30T05:48:44.826Z,19.16
2018-03-30T05:49:44.847Z,19.18
2018-03-30T05:50:44.850Z,19.19
2018-03-30T05:51:44.849Z,19.19
2018-03-30T05:52:44.866Z,19.19
2018-03-30T05:53:44.842Z,19.19
2018-03-30T05:54:44.818Z,19.19
2018-03-30T05:55:45.130Z,19.22
2018-03-30T05:56:44.827Z,19.18
2018-03-30T05:57:44.886Z,19.23
2018-03-30T05:58:44.881Z,19.2
2018-03-30T05:59:44.884Z,19.22
2018-03-30T06:00:44.867Z,19.22
2018-03-30T06:01:44.847Z,19.22
2018-03-30T06:02:44.862Z,19.23
2018-03-30T06:03:44.866Z,19.23
2018-03-30T06:04:44.837Z,19.22
2018-03-30T06:05:44.883Z,19.25
2018-03-30T06:06:44.879Z,19.26
2018-03-30T06:07:44.833Z,19.26
2018-03-30T06:08:44.853Z,19.25
2018-03-30T06:09:44.829Z,19.26
2018-03-30T06:10:44.859Z,19.27
2018-03-30T06:11:44.857Z,19.27
2018-03-30T06:12:44.826Z,19.26
2018-03-30T06:13:44.854Z,19.25
2018-03-30T06:14:44.843Z,19.26
2018-03-30T06:15:44.824Z,19.25
2018-03-30T06:16:44.918Z,19.25
2018-03-30T06:17:44.943Z,19.26
2018-03-30T06:18:44.960Z,19.25
2018-03-30T06:19:44.827Z,19.25
2018-03-30T06:20:44.905Z,19.25
2018-03-30T06:21:44.880Z,19.27
2018-03-30T06:22:44.875Z,19.25
2018-03-30T06:23:44.823Z,19.23
2018-03-30T06:24:44.828Z,19.27
2018-03-30T06:25:44.830Z,19.26
2018-03-30T06:26:44.981Z,19.26
2018-03-30T06:27:44.844Z,19.27
2018-03-30T06:28:44.915Z,19.29
2018-03-30T06:29:44.838Z,19.27
2018-03-30T06:30:44.868Z,19.27
2018-03-30T06:31:44.832Z,19.29
2018-03-30T06:32:44.978Z,19.27
2018-03-30T06:33:44.811Z,19.29
2018-03-30T06:34:44.830Z,19.29
2018-03-30T06:35:44.846Z,19.3
2018-03-30T06:36:44.832Z,19.32
2018-03-30T06:37:44.856Z,19.27
2018-03-30T06:38:44.833Z,19.32
2018-03-30T06:39:44.849Z,19.32
2018-03-30T06:40:44.849Z,19.3
2018-03-30T06:41:44.828Z,19.33
2018-03-30T06:42:44.835Z,19.35
2018-03-30T06:43:44.823Z,19.3
2018-03-30T06:44:44.840Z,19.35
2018-03-30T06:45:44.853Z,19.35
2018-03-30T06:46:44.847Z,19.33
2018-03-30T06:47:45.086Z,19.33
2018-03-30T06:48:44.825Z,19.33
2018-03-30T06:49:44.813Z,19.35
2018-03-30T06:50:44.828Z,19.4
2018-03-30T06:51:44.815Z,19.39
2018-03-30T06:52:44.864Z,19.39
2018-03-30T06:53:44.839Z,19.36
2018-03-30T06:54:44.828Z,19.37
2018-03-30T06:55:44.857Z,19.39
2018-03-30T06:56:44.864Z,19.42
2018-03-30T06:57:45.236Z,19.4
2018-03-30T06:58:44.899Z,19.39
2018-03-30T06:59:44.829Z,19.4
2018-03-30T07:00:44.831Z,19.42
2018-03-30T07:01:44.817Z,19.4
2018-03-30T07:02:44.886Z,19.43
2018-03-30T07:03:44.876Z,19.43
2018-03-30T07:04:44.837Z,19.45
2018-03-30T07:05:44.826Z,19.43
2018-03-30T07:06:44.782Z,19.46
2018-03-30T07:07:44.829Z,19.43
2018-03-30T07:08:44.826Z,19.45
2018-03-30T07:09:44.803Z,19.52
2018-03-30T07:10:44.828Z,19.47
2018-03-30T07:11:44.812Z,19.46
2018-03-30T07:12:44.936Z,19.47
2018-03-30T07:13:44.811Z,19.49
2018-03-30T07:14:44.816Z,19.47
2018-03-30T07:15:44.824Z,19.5
2018-03-30T07:16:44.819Z,19.5
2018-03-30T07:17:44.826Z,19.54
2018-03-30T07:18:44.833Z,19.53
2018-03-30T07:19:44.813Z,19.54
2018-03-30T07:20:44.809Z,19.56
2018-03-30T07:21:44.822Z,19.57
2018-03-30T07:22:44.818Z,19.58
2018-03-30T07:23:44.850Z,19.58
2018-03-30T07:24:44.804Z,19.58
2018-03-30T07:25:44.875Z,19.6
2018-03-30T07:26:44.811Z,19.58
2018-03-30T07:27:44.812Z,19.61
2018-03-30T07:28:44.804Z,19.61
2018-03-30T07:29:44.820Z,19.6
2018-03-30T07:30:44.802Z,19.64
2018-03-30T07:31:44.809Z,19.63
2018-03-30T07:32:44.801Z,19.61
2018-03-30T07:33:44.833Z,19.63
2018-03-30T07:34:44.854Z,19.64
2018-03-30T07:35:44.829Z,19.61
2018-03-30T07:36:44.793Z,19.67
2018-03-30T07:37:44.810Z,19.68
2018-03-30T07:38:44.951Z,19.68
2018-03-30T07:39:44.808Z,19.67
2018-03-30T07:40:44.796Z,19.68
2018-03-30T07:41:44.814Z,19.7
2018-03-30T07:42:44.803Z,19.68
2018-03-30T07:43:45.026Z,19.73
2018-03-30T07:44:44.800Z,19.71
2018-03-30T07:45:44.841Z,19.73
2018-03-30T07:46:44.854Z,19.73
2018-03-30T07:47:45.320Z,19.74
2018-03-30T07:48:44.810Z,19.74
2018-03-30T07:49:44.837Z,19.73
2018-03-30T07:50:44.813Z,19.73
2018-03-30T07:51:44.847Z,19.75
2018-03-30T07:52:44.811Z,19.74
2018-03-30T07:53:44.786Z,19.73
2018-03-30T07:54:44.830Z,19.73
2018-03-30T07:55:44.802Z,19.73
2018-03-30T07:56:44.794Z,19.73
2018-03-30T07:57:44.835Z,19.75
2018-03-30T07:58:44.810Z,19.73
2018-03-30T07:59:44.798Z,19.73
2018-03-30T08:00:44.849Z,19.73
2018-03-30T08:01:44.790Z,19.73
2018-03-30T08:02:44.796Z,19.75
2018-03-30T08:03:44.832Z,19.74
2018-03-30T08:04:44.880Z,19.73
2018-03-30T08:05:44.802Z,19.73
2018-03-30T08:06:44.831Z,19.77
2018-03-30T08:07:44.818Z,19.73
2018-03-30T08:08:44.812Z,19.75
2018-03-30T08:09:44.847Z,19.75
2018-03-30T08:10:44.783Z,19.74
2018-03-30T08:11:44.814Z,19.75
2018-03-30T08:12:44.814Z,19.77
2018-03-30T08:13:44.818Z,19.75
2018-03-30T08:14:44.963Z,19.75
2018-03-30T08:15:44.805Z,19.78
2018-03-30T08:16:44.894Z,19.75
2018-03-30T08:17:45.186Z,19.77
2018-03-30T08:18:45.226Z,19.77
2018-03-30T08:19:45.634Z,19.78
2018-03-30T08:20:44.787Z,19.77
2018-03-30T08:21:44.970Z,19.8
2018-03-30T08:22:44.819Z,19.77
2018-03-30T08:23:44.827Z,19.77
2018-03-30T08:24:44.791Z,19.78
2018-03-30T08:25:44.806Z,19.81
2018-03-30T08:26:44.871Z,19.78
2018-03-30T08:27:44.788Z,19.8
2018-03-30T08:28:44.824Z,19.8
2018-03-30T08:29:44.785Z,19.81
2018-03-30T08:30:44.817Z,19.78
2018-03-30T08:31:44.801Z,19.81
2018-03-30T08:32:45.224Z,19.8
2018-03-30T08:33:44.806Z,19.82
2018-03-30T08:34:44.850Z,19.81
2018-03-30T08:35:44.843Z,19.8
2018-03-30T08:36:44.827Z,19.85
2018-03-30T08:37:44.792Z,19.84
2018-03-30T08:38:45.224Z,19.84
2018-03-30T08:39:45.395Z,19.85
2018-03-30T08:40:44.785Z,19.82
2018-03-30T08:41:44.830Z,19.84
2018-03-30T08:42:44.785Z,19.86
2018-03-30T08:43:44.789Z,19.82
2018-03-30T08:44:44.871Z,19.84
2018-03-30T08:45:44.840Z,19.85
2018-03-30T08:46:44.790Z,19.81
2018-03-30T08:47:44.807Z,19.82
2018-03-30T08:48:44.851Z,19.82
2018-03-30T08:49:44.949Z,19.63
2018-03-30T08:50:44.788Z,19.52
2018-03-30T08:51:44.866Z,19.4
2018-03-30T08:52:44.798Z,18.99
2018-03-30T08:53:44.800Z,19.15
2018-03-30T08:54:44.813Z,19.23
2018-03-30T08:55:44.795Z,19.33
2018-03-30T08:56:44.887Z,19.42
2018-03-30T08:57:44.805Z,19.45
2018-03-30T08:58:44.810Z,19.52
2018-03-30T08:59:44.793Z,19.57
2018-03-30T09:00:44.816Z,19.61
2018-03-30T09:01:44.777Z,19.68
2018-03-30T09:02:44.794Z,19.71
2018-03-30T09:03:44.798Z,19.74
2018-03-30T09:04:44.809Z,19.77
2018-03-30T09:05:44.862Z,19.8
2018-03-30T09:06:45.640Z,19.8
2018-03-30T09:07:44.976Z,19.84
2018-03-30T09:08:44.786Z,19.85
2018-03-30T09:09:44.962Z,19.85
2018-03-30T09:10:45.013Z,19.91
2018-03-30T09:11:44.802Z,19.92
2018-03-30T09:12:45.030Z,19.92
2018-03-30T09:13:44.817Z,19.99
2018-03-30T09:14:44.791Z,19.98
2018-03-30T09:15:44.832Z,20.01
2018-03-30T09:16:44.780Z,20.04
2018-03-30T09:17:44.826Z,20.04
2018-03-30T09:18:44.786Z,20.02
2018-03-30T09:19:44.811Z,20.07
2018-03-30T09:20:44.829Z,20.07
2018-03-30T09:21:44.866Z,20.07
2018-03-30T09:22:44.803Z,20.11
2018-03-30T09:23:44.847Z,20.11
2018-03-30T09:24:45.133Z,20.09
2018-03-30T09:25:44.925Z,20.18
2018-03-30T09:26:47.376Z,20.2
2018-03-30T09:27:44.937Z,20.18
2018-03-30T09:28:44.856Z,20.22
2018-03-30T09:29:45.282Z,20.2
2018-03-30T09:30:44.911Z,20.19
2018-03-30T09:31:45.109Z,20.26
2018-03-30T09:32:46.663Z,20.23
2018-03-30T09:33:45.058Z,20.22
2018-03-30T09:34:45.144Z,20.27
2018-03-30T09:35:45.266Z,20.22
2018-03-30T09:36:45.164Z,20.22
2018-03-30T09:37:45.172Z,20.27
2018-03-30T09:38:48.566Z,20.19
2018-03-30T09:39:45.155Z,20.2
2018-03-30T09:40:45.085Z,20.26
2018-03-30T09:41:45.011Z,20.29
2018-03-30T09:42:45.077Z,20.29
2018-03-30T09:43:45.062Z,20.32
2018-03-30T09:44:45.163Z,20.32
2018-03-30T09:45:45.259Z,20.32
2018-03-30T09:46:45.102Z,20.36
2018-03-30T09:47:46.239Z,20.33
2018-03-30T09:48:45.766Z,20.32
2018-03-30T09:49:45.767Z,20.39
2018-03-30T09:50:45.001Z,20.4
2018-03-30T09:51:45.322Z,20.39
2018-03-30T09:52:47.059Z,20.4
2018-03-30T09:53:44.956Z,20.43
2018-03-30T09:54:45.600Z,20.4
2018-03-30T09:55:44.960Z,20.4
2018-03-30T09:56:45.146Z,20.42
2018-03-30T09:57:44.912Z,20.39
2018-03-30T09:58:44.994Z,20.47
2018-03-30T09:59:44.906Z,20.43
2018-03-30T10:00:44.841Z,20.4
2018-03-30T10:01:44.783Z,20.37
2018-03-30T10:02:44.798Z,20.36
2018-03-30T10:03:44.777Z,20.36
2018-03-30T10:04:44.808Z,20.37
2018-03-30T10:05:44.760Z,20.35
2018-03-30T10:06:44.756Z,20.36
2018-03-30T10:07:44.873Z,20.37
2018-03-30T10:08:44.778Z,20.36
2018-03-30T10:09:44.744Z,20.35
2018-03-30T10:10:44.771Z,20.33
2018-03-30T10:11:45.208Z,20.35
2018-03-30T10:12:44.819Z,20.33
2018-03-30T10:13:44.777Z,20.39
2018-03-30T10:14:44.763Z,20.39
2018-03-30T10:15:44.830Z,20.35
2018-03-30T10:16:44.772Z,20.4
2018-03-30T10:17:44.790Z,20.37
2018-03-30T10:18:44.847Z,20.35
2018-03-30T10:19:44.880Z,20.39
2018-03-30T10:20:44.885Z,20.37
2018-03-30T10:21:44.840Z,20.35
2018-03-30T10:22:44.804Z,20.37
2018-03-30T10:23:44.760Z,20.37
2018-03-30T10:24:44.750Z,20.35
2018-03-30T10:25:44.826Z,20.37
2018-03-30T10:26:44.762Z,20.37
2018-03-30T10:27:44.928Z,20.35
2018-03-30T10:28:44.766Z,20.4
2018-03-30T10:29:44.828Z,20.4
2018-03-30T10:30:44.799Z,20.4
2018-03-30T10:31:44.761Z,20.4
2018-03-30T10:32:44.842Z,20.4
2018-03-30T10:33:45.067Z,20.4
2018-03-30T10:34:44.757Z,20.44
2018-03-30T10:35:44.767Z,20.44
2018-03-30T10:36:44.817Z,20.39
2018-03-30T10:37:44.839Z,20.43
2018-03-30T10:38:44.832Z,20.42
2018-03-30T10:39:44.757Z,20.39
2018-03-30T10:40:44.792Z,20.44
2018-03-30T10:41:44.757Z,20.46
2018-03-30T10:42:44.733Z,20.44
2018-03-30T10:43:44.775Z,20.48
2018-03-30T10:44:44.776Z,20.48
2018-03-30T10:45:44.737Z,20.47
2018-03-30T10:46:44.798Z,20.5
2018-03-30T10:47:44.784Z,20.47
2018-03-30T10:48:45.158Z,20.48
2018-03-30T10:49:44.787Z,20.51
2018-03-30T10:50:44.795Z,20.5
2018-03-30T10:51:44.795Z,20.48
2018-03-30T10:52:44.799Z,20.53
2018-03-30T10:53:44.735Z,20.54
2018-03-30T10:54:44.836Z,20.53
2018-03-30T10:55:44.809Z,20.5
2018-03-30T10:56:44.761Z,20.48
2018-03-30T10:57:44.777Z,20.44
2018-03-30T10:58:44.767Z,20.44
2018-03-30T10:59:44.766Z,20.44
2018-03-30T11:00:44.900Z,20.43
2018-03-30T11:01:44.738Z,20.44
2018-03-30T11:02:44.751Z,20.43
2018-03-30T11:03:44.786Z,20.44
2018-03-30T11:04:44.749Z,20.43
2018-03-30T11:05:44.866Z,20.43
2018-03-30T11:06:44.799Z,20.42
2018-03-30T11:07:44.765Z,20.4
2018-03-30T11:08:44.759Z,20.4
2018-03-30T11:09:44.823Z,20.39
2018-03-30T11:10:44.760Z,20.39
2018-03-30T11:11:44.804Z,20.37
2018-03-30T11:12:44.760Z,20.37
2018-03-30T11:13:44.754Z,20.35
2018-03-30T11:14:44.760Z,20.37
2018-03-30T11:15:44.826Z,20.37
2018-03-30T11:16:44.781Z,20.36
2018-03-30T11:17:44.735Z,20.36
2018-03-30T11:18:44.741Z,20.35
2018-03-30T11:19:44.742Z,20.36
2018-03-30T11:20:44.740Z,20.37
2018-03-30T11:21:44.770Z,20.37
2018-03-30T11:22:44.746Z,20.35
2018-03-30T11:23:44.752Z,20.33
2018-03-30T11:24:44.751Z,20.35
2018-03-30T11:25:44.757Z,20.3
2018-03-30T11:26:44.774Z,20.29
2018-03-30T11:27:44.770Z,20.32
2018-03-30T11:28:44.736Z,20.26
2018-03-30T11:29:44.734Z,20.26
2018-03-30T11:30:44.742Z,20.29
2018-03-30T11:31:44.758Z,20.23
2018-03-30T11:32:44.736Z,20.25
2018-03-30T11:33:44.739Z,20.25
2018-03-30T11:34:44.794Z,20.22
2018-03-30T11:35:44.751Z,20.25
2018-03-30T11:36:44.906Z,20.27
2018-03-30T11:37:44.800Z,20.23
2018-03-30T11:38:44.728Z,20.26
2018-03-30T11:39:44.802Z,20.26
2018-03-30T11:40:44.811Z,20.23
2018-03-30T11:41:44.766Z,20.26
2018-03-30T11:42:44.753Z,20.27
2018-03-30T11:43:44.738Z,20.23
2018-03-30T11:44:45.220Z,20.29
2018-03-30T11:45:44.756Z,20.29
2018-03-30T11:46:44.810Z,20.26
2018-03-30T11:47:44.743Z,20.27
2018-03-30T11:48:44.745Z,20.26
2018-03-30T11:49:44.746Z,20.26
2018-03-30T11:50:44.730Z,20.27
2018-03-30T11:51:44.790Z,20.26
2018-03-30T11:52:44.731Z,20.26
2018-03-30T11:53:44.734Z,20.26
2018-03-30T11:54:44.754Z,20.29
2018-03-30T11:55:44.805Z,20.23
2018-03-30T11:56:44.749Z,20.27
2018-03-30T11:57:44.744Z,20.23
2018-03-30T11:58:44.803Z,20.2
2018-03-30T11:59:44.726Z,20.25
2018-03-30T12:00:44.732Z,20.26
2018-03-30T12:01:44.751Z,20.22
2018-03-30T12:02:44.742Z,20.22
2018-03-30T12:03:44.718Z,20.23
2018-03-30T12:04:44.722Z,20.19
2018-03-30T12:05:44.790Z,20.22
2018-03-30T12:06:44.755Z,20.22
2018-03-30T12:07:44.727Z,20.18
2018-03-30T12:08:44.728Z,20.22
2018-03-30T12:09:44.720Z,20.25
2018-03-30T12:10:44.711Z,20.18
2018-03-30T12:11:44.830Z,20.2
2018-03-30T12:12:44.714Z,20.22
2018-03-30T12:13:44.715Z,20.16
2018-03-30T12:14:44.739Z,20.2
2018-03-30T12:15:44.730Z,20.2
2018-03-30T12:16:44.752Z,20.18
2018-03-30T12:17:44.754Z,20.19
2018-03-30T12:18:44.714Z,20.18
2018-03-30T12:19:44.743Z,20.15
2018-03-30T12:20:44.827Z,20.16
2018-03-30T12:21:44.854Z,20.16
2018-03-30T12:22:44.728Z,20.13
2018-03-30T12:23:44.724Z,20.18
2018-03-30T12:24:44.744Z,20.18
2018-03-30T12:25:44.720Z,20.13
2018-03-30T12:26:44.728Z,20.13
2018-03-30T12:27:44.788Z,20.16
2018-03-30T12:28:44.709Z,20.13
2018-03-30T12:29:44.715Z,20.13
2018-03-30T12:30:44.793Z,20.12
2018-03-30T12:31:44.727Z,20.08
2018-03-30T12:32:44.734Z,20.12
2018-03-30T12:33:44.746Z,20.15
2018-03-30T12:34:44.722Z,20.12
2018-03-30T12:35:44.730Z,20.16
2018-03-30T12:36:44.745Z,20.16
2018-03-30T12:37:44.754Z,20.19
2018-03-30T12:38:44.713Z,20.19
2018-03-30T12:39:44.739Z,20.23
2018-03-30T12:40:44.726Z,20.23
2018-03-30T12:41:44.748Z,20.25
2018-03-30T12:42:44.782Z,20.26
2018-03-30T12:43:44.737Z,20.25
2018-03-30T12:44:44.750Z,20.29
2018-03-30T12:45:44.731Z,20.3
2018-03-30T12:46:45.018Z,20.3
2018-03-30T12:47:44.758Z,20.32
2018-03-30T12:48:44.777Z,20.35
2018-03-30T12:49:44.722Z,20.36
2018-03-30T12:50:44.701Z,20.37
2018-03-30T12:51:44.706Z,20.37
2018-03-30T12:52:44.718Z,20.36
2018-03-30T12:53:44.745Z,20.4
2018-03-30T12:54:44.811Z,20.4
2018-03-30T12:55:44.722Z,20.42